createdAt,value
2017-11-12T00:00:14.989Z,27.10
2017-11-12T00:02:42.857Z,20.00
2017-11-12T00:05:10.724Z,23.98
2017-11-12T00:07:38.592Z,26.23
2017-11-12T00:10:06.561Z,20.02
2017-11-12T00:12:34.429Z,17.05
2017-11-12T00:15:02.297Z,16.80
2017-11-12T00:17:30.164Z,18.65
2017-11-12T00:19:58.031Z,18.40
2017-11-12T00:22:25.898Z,16.77
2017-11-12T00:24:53.772Z,20.80
2017-11-12T00:27:21.640Z,14.38
2017-11-12T00:29:49.499Z,23.08
2017-11-12T00:32:17.368Z,18.87
2017-11-12T00:34:45.236Z,20.75
2017-11-12T00:37:13.102Z,27.37
2017-11-12T00:39:40.969Z,24.00
2017-11-12T00:42:08.735Z,21.65
2017-11-12T00:44:36.602Z,19.08
2017-11-12T00:47:04.469Z,19.20
2017-11-12T00:49:32.187Z,19.42
2017-11-12T00:51:59.999Z,26.05
2017-11-12T00:54:27.865Z,23.42
2017-11-12T00:56:55.734Z,24.65
2017-11-12T00:59:23.601Z,24.98
2017-11-12T01:01:51.331Z,24.45
2017-11-12T01:04:19.043Z,33.80
2017-11-12T01:06:46.763Z,34.55
2017-11-12T01:09:14.495Z,32.28
2017-11-12T01:11:42.999Z,26.75
2017-11-12T01:14:10.728Z,36.13
2017-11-12T01:16:38.437Z,29.63
2017-11-12T01:19:06.147Z,27.27
2017-11-12T01:21:33.859Z,20.27
2017-11-12T01:24:01.575Z,22.10
2017-11-12T01:26:29.288Z,30.83
2017-11-12T01:28:57.087Z,21.35
2017-11-12T01:31:24.955Z,29.23
2017-11-12T01:33:52.821Z,23.30
2017-11-12T01:36:20.549Z,22.37
2017-11-12T01:38:48.351Z,21.27
2017-11-12T01:41:16.225Z,25.35
2017-11-12T01:43:43.938Z,20.85
2017-11-12T01:46:11.689Z,18.15
2017-11-12T01:48:40.270Z,19.48
2017-11-12T01:51:08.921Z,16.27
2017-11-12T01:53:36.788Z,16.60
2017-11-12T01:56:04.651Z,17.12
2017-11-12T01:58:32.725Z,14.45
2017-11-12T02:01:00.606Z,15.23
2017-11-12T02:03:28.562Z,17.48
2017-11-12T02:05:56.428Z,20.55
2017-11-12T02:08:24.295Z,25.80
2017-11-12T02:10:52.163Z,26.85
2017-11-12T02:13:20.030Z,34.80
2017-11-12T02:15:47.897Z,30.98
2017-11-12T02:18:15.867Z,27.92
2017-11-12T02:20:43.836Z,34.42
2017-11-12T02:23:11.724Z,35.92
2017-11-12T02:25:40.391Z,23.35
2017-11-12T02:28:08.361Z,23.27
2017-11-12T02:30:36.330Z,29.90
2017-11-12T02:33:04.196Z,28.87
2017-11-12T02:35:32.063Z,39.13
2017-11-12T02:37:59.932Z,45.50
2017-11-12T02:40:27.803Z,31.60
2017-11-12T02:42:55.668Z,26.25
2017-11-12T02:45:23.637Z,28.62
2017-11-12T02:47:51.503Z,27.20
2017-11-12T02:50:19.372Z,36.30
2017-11-12T02:52:47.239Z,25.67
2017-11-12T02:55:15.208Z,20.00
2017-11-12T02:57:43.075Z,19.92
2017-11-12T03:00:10.942Z,22.25
2017-11-12T03:02:38.810Z,19.85
2017-11-12T03:05:06.668Z,25.42
2017-11-12T03:07:34.545Z,22.25
2017-11-12T03:10:02.413Z,20.12
2017-11-12T03:12:30.278Z,25.90
2017-11-12T03:14:58.146Z,32.33
2017-11-12T03:17:26.012Z,39.92
2017-11-12T03:19:53.882Z,36.42
2017-11-12T03:22:21.748Z,30.95
2017-11-12T03:24:49.615Z,37.40
2017-11-12T03:27:17.483Z,40.50
2017-11-12T03:29:45.351Z,37.92
2017-11-12T03:32:13.217Z,37.03
2017-11-12T03:34:41.187Z,34.10
2017-11-12T03:37:09.054Z,27.62
2017-11-12T03:39:36.921Z,34.08
2017-11-12T03:42:04.788Z,38.42
2017-11-12T03:44:32.656Z,35.95
2017-11-12T03:47:00.467Z,25.95
2017-11-12T03:49:29.210Z,23.73
2017-11-12T03:51:57.078Z,22.55
2017-11-12T03:54:24.963Z,18.30
2017-11-12T03:56:52.812Z,26.58
2017-11-12T03:59:20.679Z,24.33
2017-11-12T04:01:48.549Z,19.42
2017-11-12T04:04:16.414Z,19.42
2017-11-12T04:06:44.281Z,22.87
2017-11-12T04:09:12.150Z,25.30
2017-11-12T04:11:40.016Z,27.02
2017-11-12T04:14:07.883Z,28.87
2017-11-12T04:16:35.752Z,22.80
2017-11-12T04:19:03.619Z,25.27
2017-11-12T04:21:31.372Z,21.48
2017-11-12T04:23:59.886Z,22.30
2017-11-12T04:26:27.600Z,23.52
2017-11-12T04:28:55.319Z,31.23
2017-11-12T04:31:23.159Z,23.75
2017-11-12T04:33:51.027Z,16.98
2017-11-12T04:36:18.915Z,18.08
2017-11-12T04:38:46.762Z,22.70
2017-11-12T04:41:14.731Z,23.17
2017-11-12T04:43:42.599Z,21.08
2017-11-12T04:46:10.465Z,25.80
2017-11-12T04:48:38.333Z,25.33
2017-11-12T04:51:06.200Z,22.15
2017-11-12T04:53:34.067Z,24.45
2017-11-12T04:56:01.941Z,28.73
2017-11-12T04:58:29.807Z,19.17
2017-11-12T05:00:57.671Z,17.23
2017-11-12T05:03:25.538Z,23.98
2017-11-12T05:05:53.432Z,25.08
2017-11-12T05:08:21.277Z,18.92
2017-11-12T05:10:49.145Z,18.75
2017-11-12T05:13:17.010Z,19.95
2017-11-12T05:15:44.874Z,22.73
2017-11-12T05:18:12.741Z,26.92
2017-11-12T05:20:40.608Z,28.33
2017-11-12T05:23:08.475Z,18.50
2017-11-12T05:25:36.343Z,22.00
2017-11-12T05:28:04.210Z,19.50
2017-11-12T05:30:32.083Z,18.42
2017-11-12T05:32:59.944Z,19.25
2017-11-12T05:35:27.812Z,21.02
2017-11-12T05:37:55.682Z,21.75
2017-11-12T05:42:58.275Z,17.05
2017-11-12T05:45:26.143Z,19.37
2017-11-12T05:47:54.008Z,20.00
2017-11-12T05:50:21.876Z,24.40
2017-11-12T05:52:49.780Z,24.58
2017-11-12T05:55:18.329Z,20.67
2017-11-12T05:57:46.197Z,20.20
2017-11-12T06:00:14.064Z,21.73
2017-11-12T06:02:41.931Z,22.87
2017-11-12T06:05:09.899Z,17.08
2017-11-12T06:07:37.879Z,16.35
2017-11-12T06:10:07.837Z,15.65
2017-11-12T06:12:37.512Z,17.40
2017-11-12T06:15:05.457Z,15.25
2017-11-12T06:17:33.333Z,15.10
2017-11-12T06:20:01.200Z,18.30
2017-11-12T06:22:29.067Z,19.60
2017-11-12T06:24:56.935Z,15.63
2017-11-12T06:27:24.801Z,22.23
2017-11-12T06:29:52.680Z,19.05
2017-11-12T06:35:24.877Z,15.50
2017-11-12T06:37:59.360Z,22.70
2017-11-12T06:40:29.126Z,18.65
2017-11-12T06:43:00.045Z,20.20
2017-11-12T06:45:29.896Z,23.35
2017-11-12T06:47:58.531Z,23.70
2017-11-12T06:50:26.398Z,17.77
2017-11-12T06:52:54.272Z,20.27
2017-11-12T06:55:22.143Z,18.20
2017-11-12T06:57:50.000Z,20.83
2017-11-12T07:00:17.867Z,27.02
2017-11-12T07:02:45.735Z,43.05
2017-11-12T07:05:13.607Z,48.05
2017-11-12T07:07:41.470Z,47.95
2017-11-12T07:10:09.337Z,47.47
2017-11-12T07:12:37.410Z,38.72
2017-11-12T07:15:05.156Z,39.05
2017-11-12T07:17:33.042Z,54.33
2017-11-12T07:20:00.909Z,49.22
2017-11-12T07:22:28.707Z,36.72
2017-11-12T07:24:57.359Z,39.00
2017-11-12T07:27:25.228Z,45.97
2017-11-12T07:29:54.850Z,47.10
2017-11-12T07:32:22.633Z,40.70
2017-11-12T07:34:51.186Z,41.88
2017-11-12T07:37:19.053Z,34.88
2017-11-12T07:39:46.920Z,34.35
2017-11-12T07:42:14.787Z,30.20
2017-11-12T07:44:42.655Z,30.70
2017-11-12T07:47:10.521Z,30.33
2017-11-12T07:49:38.389Z,29.33
2017-11-12T07:52:06.111Z,32.17
2017-11-12T07:54:33.918Z,28.10
2017-11-12T07:57:01.785Z,34.65
2017-11-12T07:59:29.503Z,26.87
2017-11-12T08:01:57.231Z,35.17
2017-11-12T08:04:25.082Z,25.33
2017-11-12T08:06:52.948Z,28.98
2017-11-12T08:09:20.813Z,30.50
2017-11-12T08:11:48.683Z,33.20
2017-11-12T08:14:16.556Z,35.80
2017-11-12T08:16:44.426Z,36.13
2017-11-12T08:19:12.288Z,33.08
2017-11-12T08:21:40.152Z,35.47
2017-11-12T08:24:08.025Z,35.75
2017-11-12T08:26:36.198Z,29.15
2017-11-12T08:29:04.170Z,36.20
2017-11-12T08:31:32.030Z,32.70
2017-11-12T08:33:59.899Z,35.53
2017-11-12T08:36:27.765Z,40.97
2017-11-12T08:38:55.633Z,29.80
2017-11-12T08:41:23.501Z,32.83
2017-11-12T08:43:51.367Z,27.50
2017-11-12T08:46:19.337Z,37.90
2017-11-12T08:48:47.204Z,29.77
2017-11-12T08:51:15.183Z,29.33
2017-11-12T08:53:43.142Z,34.58
2017-11-12T08:56:11.112Z,34.03
2017-11-12T08:58:38.980Z,26.95
2017-11-12T09:01:06.855Z,29.20
2017-11-12T09:03:34.714Z,29.42
2017-11-12T09:06:02.582Z,26.92
2017-11-12T09:08:30.450Z,28.15
2017-11-12T09:10:58.215Z,37.63
2017-11-12T09:13:26.082Z,36.65
2017-11-12T09:15:53.949Z,32.67
2017-11-12T09:18:21.817Z,32.50
2017-11-12T09:20:49.685Z,31.95
2017-11-12T09:23:17.552Z,31.30
2017-11-12T09:25:45.419Z,31.40
2017-11-12T09:28:13.286Z,26.23
2017-11-12T09:30:41.160Z,39.05
2017-11-12T09:33:09.021Z,29.98
2017-11-12T09:35:36.893Z,22.67
2017-11-12T09:38:04.756Z,24.40
2017-11-12T09:40:32.622Z,22.25
2017-11-12T09:43:00.490Z,18.98
2017-11-12T09:45:28.357Z,23.45
2017-11-12T09:47:56.224Z,26.98
2017-11-12T09:50:24.092Z,24.55
2017-11-12T09:52:51.959Z,24.83
2017-11-12T09:55:19.826Z,23.95
2017-11-12T09:57:47.627Z,26.75
2017-11-12T10:00:16.279Z,26.95
2017-11-12T10:02:44.145Z,30.70
2017-11-12T10:05:12.014Z,27.23
2017-11-12T10:07:39.880Z,25.25
2017-11-12T10:10:07.747Z,32.92
2017-11-12T10:12:35.614Z,25.12
2017-11-12T10:15:03.483Z,33.65
2017-11-12T10:17:31.348Z,24.35
2017-11-12T10:19:59.217Z,29.92
2017-11-12T10:22:28.983Z,25.92
2017-11-12T10:24:56.794Z,24.45
2017-11-12T10:27:24.662Z,15.98
2017-11-12T10:29:52.528Z,23.50
2017-11-12T10:32:20.396Z,15.70
2017-11-12T10:34:48.264Z,17.95
2017-11-12T10:37:16.131Z,23.85
2017-11-12T10:39:43.998Z,13.57
2017-11-12T10:42:11.865Z,12.63
2017-11-12T10:44:39.663Z,14.95
2017-11-12T10:47:08.214Z,14.02
2017-11-12T10:49:36.082Z,10.27
2017-11-12T10:52:03.949Z,11.12
2017-11-12T10:54:31.817Z,13.23
2017-11-12T10:56:59.684Z,11.77
2017-11-12T10:59:27.547Z,10.52
2017-11-12T11:01:55.417Z,10.80
2017-11-12T11:04:23.294Z,8.98
2017-11-12T11:06:51.153Z,6.30
2017-11-12T11:09:19.020Z,7.70
2017-11-12T11:11:46.887Z,11.60
2017-11-12T11:14:14.760Z,9.43
2017-11-12T11:16:44.878Z,9.15
2017-11-12T11:19:12.745Z,10.85
2017-11-12T11:21:40.523Z,11.27
2017-11-12T11:24:08.376Z,10.63
2017-11-12T11:26:37.007Z,10.63
2017-11-12T11:29:05.484Z,8.13
2017-11-12T11:31:34.130Z,6.53
2017-11-12T11:34:02.007Z,6.70
2017-11-12T11:36:29.863Z,9.05
2017-11-12T11:38:57.729Z,8.27
2017-11-12T11:41:25.599Z,7.82
2017-11-12T11:43:53.464Z,6.30
2017-11-12T11:46:21.170Z,6.95
2017-11-12T11:48:49.688Z,8.20
2017-11-12T11:51:17.407Z,7.10
2017-11-12T11:53:45.887Z,6.47
2017-11-12T11:56:14.438Z,7.60
2017-11-12T11:58:42.304Z,9.07
2017-11-12T12:01:10.686Z,12.23
2017-11-12T12:03:38.553Z,8.15
2017-11-12T12:06:06.522Z,11.68
2017-11-12T12:08:34.390Z,8.57
2017-11-12T12:11:02.402Z,6.70
2017-11-12T12:13:31.049Z,10.25
2017-11-12T12:15:58.829Z,9.05
2017-11-12T12:18:26.677Z,12.23
2017-11-12T12:20:54.383Z,7.07
2017-11-12T12:23:22.924Z,7.03
2017-11-12T12:25:51.248Z,13.00
2017-11-12T12:28:19.730Z,11.05
2017-11-12T12:30:48.215Z,11.30
2017-11-12T12:33:16.682Z,10.70
2017-11-12T12:35:45.163Z,9.30
2017-11-12T12:38:12.901Z,10.07
2017-11-12T12:40:40.609Z,10.40
2017-11-12T12:43:08.422Z,7.80
2017-11-12T12:45:36.135Z,8.32
2017-11-12T12:48:04.652Z,7.93
2017-11-12T12:50:32.538Z,11.55
2017-11-12T12:53:00.408Z,8.48
2017-11-12T12:55:28.275Z,7.35
2017-11-12T12:57:56.039Z,7.50
2017-11-12T13:00:23.904Z,7.28
2017-11-12T13:02:51.771Z,6.47
2017-11-12T13:05:19.639Z,8.32
2017-11-12T13:07:47.387Z,9.13
2017-11-12T13:10:15.270Z,5.28
2017-11-12T13:12:43.139Z,7.15
2017-11-12T13:15:10.947Z,6.30
2017-11-12T13:17:39.448Z,6.32
2017-11-12T13:20:07.163Z,8.00
2017-11-12T13:22:34.914Z,8.23
2017-11-12T13:25:02.787Z,8.13
2017-11-12T13:27:30.648Z,7.93
2017-11-12T13:29:58.384Z,7.25
2017-11-12T13:32:26.107Z,7.95
2017-11-12T13:34:54.639Z,7.25
2017-11-12T13:37:22.347Z,13.70
2017-11-12T13:39:50.071Z,6.80
2017-11-12T13:42:17.815Z,6.45
2017-11-12T13:44:45.535Z,7.65
2017-11-12T13:47:13.256Z,12.90
2017-11-12T13:49:40.971Z,10.85
2017-11-12T13:52:08.810Z,7.43
2017-11-12T13:54:36.677Z,6.40
2017-11-12T13:57:04.443Z,6.85
2017-11-12T13:59:32.310Z,4.85
2017-11-12T14:02:00.019Z,6.90
2017-11-12T14:04:27.839Z,5.65
2017-11-12T14:06:55.707Z,6.97
2017-11-12T14:09:23.578Z,9.00
2017-11-12T14:11:51.442Z,4.30
2017-11-12T14:14:19.240Z,3.60
2017-11-12T14:16:47.716Z,4.37
2017-11-12T14:19:15.556Z,3.25
2017-11-12T14:21:43.423Z,3.58
2017-11-12T14:24:11.290Z,3.53
2017-11-12T14:26:39.161Z,3.95
2017-11-12T14:29:07.034Z,3.65
2017-11-12T14:31:34.891Z,3.65
2017-11-12T14:34:02.593Z,3.95
2017-11-12T14:36:31.242Z,9.93
2017-11-12T14:38:58.968Z,7.12
2017-11-12T14:41:26.719Z,9.23
2017-11-12T14:43:54.432Z,5.05
2017-11-12T14:46:22.139Z,4.20
2017-11-12T14:48:50.885Z,5.10
2017-11-12T14:51:18.758Z,6.10
2017-11-12T14:53:46.624Z,8.90
2017-11-12T14:56:14.489Z,5.15
2017-11-12T14:58:42.359Z,5.57
2017-11-12T15:01:10.226Z,4.85
2017-11-12T15:03:38.092Z,8.55
2017-11-12T15:06:05.960Z,4.47
2017-11-12T15:08:33.836Z,5.03
2017-11-12T15:11:01.692Z,5.78
2017-11-12T15:13:29.557Z,6.05
2017-11-12T15:15:58.886Z,8.88
2017-11-12T15:18:28.679Z,4.85
2017-11-12T15:20:57.719Z,5.15
2017-11-12T15:23:25.533Z,9.95
2017-11-12T15:25:53.399Z,5.90
2017-11-12T15:28:21.301Z,5.65
2017-11-12T15:30:49.852Z,6.40
2017-11-12T15:33:17.719Z,9.82
2017-11-12T15:35:45.664Z,7.40
2017-11-12T15:38:13.374Z,8.48
2017-11-12T15:40:41.075Z,9.65
2017-11-12T15:43:08.803Z,9.00
2017-11-12T15:45:36.751Z,7.75
2017-11-12T15:48:04.718Z,6.00
2017-11-12T15:50:33.054Z,8.43
2017-11-12T15:53:01.169Z,7.07
2017-11-12T15:55:29.036Z,5.68
2017-11-12T15:57:57.315Z,5.40
2017-11-12T16:00:25.181Z,6.65
2017-11-12T16:02:53.048Z,5.20
2017-11-12T16:05:20.916Z,5.37
2017-11-12T16:07:48.784Z,4.53
2017-11-12T16:10:16.684Z,4.62
2017-11-12T16:12:45.336Z,5.15
2017-11-12T16:15:13.204Z,5.00
2017-11-12T16:17:41.071Z,7.20
2017-11-12T16:20:08.940Z,7.40
2017-11-12T16:22:36.805Z,6.75
2017-11-12T16:25:04.777Z,7.12
2017-11-12T16:27:33.666Z,7.18
2017-11-12T16:30:01.535Z,5.87
2017-11-12T16:32:29.408Z,4.90
2017-11-12T16:34:57.268Z,5.95
2017-11-12T16:37:25.137Z,6.95
2017-11-12T16:39:53.003Z,6.70
2017-11-12T16:42:20.871Z,6.82
2017-11-12T16:44:48.575Z,8.15
2017-11-12T16:47:17.118Z,7.72
2017-11-12T16:49:44.911Z,5.22
2017-11-12T16:52:12.631Z,6.87
2017-11-12T16:54:40.375Z,7.78
2017-11-12T16:57:08.483Z,9.88
2017-11-12T16:59:36.353Z,7.72
2017-11-12T17:02:04.072Z,6.85
2017-11-12T17:04:31.887Z,6.30
2017-11-12T17:06:59.749Z,7.62
2017-11-12T17:09:27.617Z,8.00
2017-11-12T17:11:55.485Z,7.05
2017-11-12T17:14:23.351Z,7.65
2017-11-12T17:16:51.219Z,6.87
2017-11-12T17:19:18.927Z,5.03
2017-11-12T17:21:47.399Z,6.55
2017-11-12T17:24:15.868Z,7.47
2017-11-12T17:26:43.579Z,6.25
2017-11-12T17:29:13.296Z,8.05
2017-11-12T17:31:41.084Z,57.53
2017-11-12T17:34:08.800Z,10.10
2017-11-12T17:36:36.614Z,6.47
2017-11-12T17:39:04.402Z,7.05
2017-11-12T17:41:32.107Z,6.60
2017-11-12T17:43:59.909Z,6.80
2017-11-12T17:46:27.636Z,5.75
2017-11-12T17:48:55.436Z,5.97
2017-11-12T17:51:23.306Z,8.00
2017-11-12T17:53:51.173Z,6.55
2017-11-12T17:56:18.888Z,4.82
2017-11-12T17:58:46.601Z,6.80
2017-11-12T18:01:14.317Z,6.85
2017-11-12T18:03:42.233Z,4.68
2017-11-12T18:06:09.940Z,7.35
2017-11-12T18:08:38.416Z,7.00
2017-11-12T18:11:06.891Z,5.20
2017-11-12T18:13:35.401Z,5.37
2017-11-12T18:16:03.244Z,4.30
2017-11-12T18:18:31.744Z,3.90
2017-11-12T18:20:59.541Z,4.35
2017-11-12T18:23:27.269Z,4.90
2017-11-12T18:25:55.766Z,6.87
2017-11-12T18:28:23.520Z,5.62
2017-11-12T18:30:51.234Z,6.43
2017-11-12T18:33:19.032Z,6.10
2017-11-12T18:35:47.577Z,11.70
2017-11-12T18:38:15.340Z,4.30
2017-11-12T18:40:43.105Z,5.12
2017-11-12T18:43:10.876Z,3.80
2017-11-12T18:45:38.742Z,10.40
2017-11-12T18:48:06.498Z,5.95
2017-11-12T18:50:34.375Z,6.97
2017-11-12T18:53:02.242Z,4.25
2017-11-12T18:55:29.994Z,3.90
2017-11-12T18:58:00.363Z,6.55
2017-11-12T19:00:35.844Z,5.22
2017-11-12T19:03:03.647Z,4.55
2017-11-12T19:05:49.129Z,5.20
2017-11-12T19:08:16.919Z,3.90
2017-11-12T19:10:45.436Z,4.50
2017-11-12T19:13:13.341Z,4.45
2017-11-12T19:15:41.213Z,4.30
2017-11-12T19:18:09.459Z,4.30
2017-11-12T19:20:47.109Z,6.43
2017-11-12T19:23:23.349Z,3.97
2017-11-12T19:25:51.888Z,3.90
2017-11-12T19:28:28.283Z,3.75
2017-11-12T19:30:56.039Z,4.05
2017-11-12T19:33:23.823Z,3.53
2017-11-12T19:35:51.586Z,5.47
2017-11-12T19:38:19.374Z,39.10
2017-11-12T19:40:47.222Z,63.28
2017-11-12T19:43:14.946Z,13.35
2017-11-12T19:45:42.661Z,17.58
2017-11-12T19:48:10.373Z,7.53
2017-11-12T19:50:38.179Z,6.70
2017-11-12T19:53:05.880Z,5.25
2017-11-12T19:55:34.356Z,4.25
2017-11-12T19:58:02.902Z,6.62
2017-11-12T20:00:30.612Z,3.78
2017-11-12T20:02:59.088Z,6.93
2017-11-12T20:05:27.556Z,6.30
2017-11-12T20:07:55.401Z,5.60
2017-11-12T20:10:23.100Z,5.62
2017-11-12T20:12:51.648Z,5.18
2017-11-12T20:15:19.372Z,5.57
2017-11-12T20:17:47.078Z,5.32
2017-11-12T20:20:14.791Z,5.53
2017-11-12T20:22:42.502Z,7.25
2017-11-12T20:25:10.245Z,7.05
2017-11-12T20:27:37.956Z,6.20
2017-11-12T20:30:06.617Z,9.77
2017-11-12T20:32:34.489Z,6.70
2017-11-12T20:35:02.999Z,8.50
2017-11-12T20:37:31.653Z,8.07
2017-11-12T20:39:59.356Z,7.70
2017-11-12T20:42:27.898Z,6.65
2017-11-12T20:44:55.801Z,7.53
2017-11-12T20:47:24.324Z,8.55
2017-11-12T20:49:52.218Z,7.22
2017-11-12T20:52:20.741Z,17.35
2017-11-12T20:54:49.273Z,7.80
2017-11-12T20:57:17.035Z,6.45
2017-11-12T20:59:44.915Z,5.55
2017-11-12T21:02:12.712Z,6.37
2017-11-12T21:04:43.826Z,6.78
2017-11-12T21:07:11.692Z,8.48
2017-11-12T21:09:39.493Z,7.37
2017-11-12T21:12:08.008Z,6.32
2017-11-12T21:14:35.759Z,8.95
2017-11-12T21:17:04.320Z,6.25
2017-11-12T21:19:47.674Z,5.87
2017-11-12T21:22:18.042Z,8.45
2017-11-12T21:24:45.795Z,6.22
2017-11-12T21:27:19.202Z,6.78
2017-11-12T21:29:47.688Z,10.10
2017-11-12T21:32:15.923Z,6.85
2017-11-12T21:34:43.695Z,7.22
2017-11-12T21:37:15.388Z,6.60
2017-11-12T21:39:43.268Z,9.85
2017-11-12T21:42:11.016Z,8.15
2017-11-12T21:44:38.775Z,6.37
2017-11-12T21:47:06.583Z,7.43
2017-11-12T21:49:35.108Z,7.35
2017-11-12T21:52:02.832Z,6.62
2017-11-12T21:54:31.313Z,5.62
2017-11-12T21:56:59.800Z,6.72
2017-11-12T21:59:28.342Z,6.18
2017-11-12T22:01:56.043Z,6.70
2017-11-12T22:04:24.593Z,7.87
2017-11-12T22:06:53.389Z,5.75
2017-11-12T22:09:21.725Z,5.62
2017-11-12T22:11:49.854Z,8.93
2017-11-12T22:14:17.612Z,7.85
2017-11-12T22:16:45.462Z,6.82
2017-11-12T22:19:13.230Z,6.22
2017-11-12T22:21:40.931Z,4.90
2017-11-12T22:24:09.420Z,6.12
2017-11-12T22:26:37.888Z,6.87
2017-11-12T22:29:06.404Z,6.65
2017-11-12T22:31:34.231Z,6.12
2017-11-12T22:34:02.786Z,6.95
2017-11-12T22:36:30.652Z,10.05
2017-11-12T22:38:58.521Z,46.55
2017-11-12T22:41:26.388Z,12.55
2017-11-12T22:43:54.255Z,6.35
2017-11-12T22:46:22.047Z,6.00
2017-11-12T22:48:49.887Z,7.45
2017-11-12T22:51:17.754Z,7.07
2017-11-12T22:53:45.622Z,7.93
2017-11-12T22:56:13.490Z,7.30
2017-11-12T22:58:41.194Z,8.48
2017-11-12T23:01:09.689Z,6.20
2017-11-12T23:03:37.500Z,7.78
2017-11-12T23:06:05.368Z,9.40
2017-11-12T23:08:33.068Z,7.90
2017-11-12T23:11:01.613Z,7.55
2017-11-12T23:13:29.483Z,8.93
2017-11-12T23:15:57.364Z,9.43
2017-11-12T23:18:25.147Z,7.57
2017-11-12T23:20:53.801Z,8.93
2017-11-12T23:23:22.590Z,9.73
2017-11-12T23:25:50.457Z,6.80
2017-11-12T23:28:18.154Z,9.60
2017-11-12T23:30:46.620Z,8.45
2017-11-12T23:33:14.468Z,13.68
2017-11-12T23:35:42.174Z,6.55
2017-11-12T23:38:10.818Z,10.45
2017-11-12T23:40:38.684Z,6.10
2017-11-12T23:43:06.396Z,8.82
2017-11-12T23:45:35.033Z,7.37
2017-11-12T23:48:02.901Z,7.97
2017-11-12T23:50:30.769Z,8.75
2017-11-12T23:52:58.476Z,7.05
2017-11-12T23:55:27.118Z,7.85
2017-11-12T23:57:54.832Z,8.55
